createdAt,value
2018-08-12T00:00:57.023Z,0.00
2018-08-12T00:01:57.041Z,0.00
2018-08-12T00:02:57.066Z,0.00
2018-08-12T00:03:57.087Z,0.00
2018-08-12T00:04:57.099Z,0.00
2018-08-12T00:05:57.115Z,0.00
2018-08-12T00:06:57.133Z,0.00
2018-08-12T00:07:57.148Z,0.00
2018-08-12T00:08:57.168Z,0.00
2018-08-12T00:09:57.187Z,0.00
2018-08-12T00:10:57.205Z,0.00
2018-08-12T00:11:57.223Z,0.00
2018-08-12T00:12:57.240Z,0.00
2018-08-12T00:13:57.273Z,0.00
2018-08-12T00:14:57.280Z,0.00
2018-08-12T00:15:57.316Z,0.00
2018-08-12T00:16:57.312Z,0.00
2018-08-12T00:17:57.330Z,0.00
2018-08-12T00:18:57.351Z,0.00
2018-08-12T00:19:57.369Z,0.00
2018-08-12T00:20:57.389Z,0.00
2018-08-12T00:21:57.400Z,0.00
2018-08-12T00:22:57.429Z,0.00
2018-08-12T00:23:57.442Z,0.00
2018-08-12T00:24:57.454Z,0.00
2018-08-12T00:25:57.472Z,0.00
2018-08-12T00:26:57.494Z,0.00
2018-08-12T00:27:57.518Z,0.00
2018-08-12T00:28:57.528Z,0.00
2018-08-12T00:29:57.560Z,0.00
2018-08-12T00:30:57.563Z,0.00
2018-08-12T00:31:57.594Z,0.00
2018-08-12T00:32:57.601Z,0.00
2018-08-12T00:33:57.621Z,0.00
2018-08-12T00:34:57.642Z,0.00
2018-08-12T00:35:57.654Z,0.00
2018-08-12T00:36:57.673Z,0.00
2018-08-12T00:37:57.693Z,0.00
2018-08-12T00:38:57.731Z,0.00
2018-08-12T00:39:57.766Z,0.00
2018-08-12T00:40:57.784Z,0.00
2018-08-12T00:41:57.791Z,0.00
2018-08-12T00:42:57.834Z,0.00
2018-08-12T00:43:57.797Z,0.00
2018-08-12T00:44:57.845Z,0.00
2018-08-12T00:45:57.864Z,0.00
2018-08-12T00:46:57.877Z,0.00
2018-08-12T00:47:57.897Z,0.00
2018-08-12T00:48:57.915Z,0.00
2018-08-12T00:49:57.931Z,0.00
2018-08-12T00:50:57.947Z,0.00
2018-08-12T00:51:57.960Z,0.00
2018-08-12T00:52:57.981Z,0.00
2018-08-12T00:53:57.997Z,0.00
2018-08-12T00:54:58.015Z,0.00
2018-08-12T00:55:58.028Z,0.00
2018-08-12T00:56:58.049Z,0.00
2018-08-12T00:57:58.066Z,0.00
2018-08-12T00:58:58.086Z,0.00
2018-08-12T00:59:58.097Z,0.00
2018-08-12T01:00:58.148Z,0.00
2018-08-12T01:01:58.131Z,0.00
2018-08-12T01:02:58.157Z,0.00
2018-08-12T01:03:58.171Z,0.00
2018-08-12T01:04:58.192Z,0.00
2018-08-12T01:05:58.212Z,0.00
2018-08-12T01:06:58.232Z,0.00
2018-08-12T01:07:58.235Z,0.00
2018-08-12T01:08:58.261Z,0.00
2018-08-12T01:09:58.277Z,0.00
2018-08-12T01:10:58.316Z,0.00
2018-08-12T01:11:58.327Z,0.00
2018-08-12T01:12:58.332Z,0.00
2018-08-12T01:13:58.333Z,0.00
2018-08-12T01:14:58.375Z,0.00
2018-08-12T01:15:58.379Z,0.00
2018-08-12T01:16:58.417Z,0.00
2018-08-12T01:17:58.423Z,0.00
2018-08-12T01:18:58.433Z,0.00
2018-08-12T01:19:58.453Z,0.00
2018-08-12T01:20:58.472Z,0.00
2018-08-12T01:21:58.485Z,0.00
2018-08-12T01:22:58.509Z,0.00
2018-08-12T01:23:58.521Z,0.00
2018-08-12T01:24:58.550Z,0.00
2018-08-12T01:25:58.559Z,0.00
2018-08-12T01:26:58.595Z,0.00
2018-08-12T01:27:58.619Z,0.00
2018-08-12T01:28:58.630Z,0.00
2018-08-12T01:29:58.640Z,0.00
2018-08-12T01:30:58.673Z,0.00
2018-08-12T01:31:58.686Z,0.00
2018-08-12T01:32:58.694Z,0.00
2018-08-12T01:33:58.750Z,0.00
2018-08-12T01:34:58.729Z,0.00
2018-08-12T01:35:58.833Z,0.00
2018-08-12T01:36:58.758Z,0.00
2018-08-12T01:37:58.802Z,0.00
2018-08-12T01:38:58.813Z,0.00
2018-08-12T01:39:58.839Z,0.00
2018-08-12T01:40:58.840Z,0.00
2018-08-12T01:41:58.854Z,0.00
2018-08-12T01:42:58.873Z,0.00
2018-08-12T01:43:58.895Z,0.00
2018-08-12T01:44:58.906Z,0.00
2018-08-12T01:45:58.930Z,0.00
2018-08-12T01:46:58.945Z,0.00
2018-08-12T01:47:58.952Z,0.00
2018-08-12T01:48:58.974Z,0.00
2018-08-12T01:49:59.011Z,0.00
2018-08-12T01:50:59.006Z,0.00
2018-08-12T01:51:59.033Z,0.00
2018-08-12T01:52:59.055Z,0.00
2018-08-12T01:53:59.083Z,0.00
2018-08-12T01:54:59.076Z,0.00
2018-08-12T01:55:59.111Z,0.00
2018-08-12T01:56:59.129Z,0.00
2018-08-12T01:57:59.146Z,0.00
2018-08-12T01:58:59.153Z,0.00
2018-08-12T01:59:59.210Z,0.00
2018-08-12T02:00:59.183Z,0.00
2018-08-12T02:01:59.197Z,0.00
2018-08-12T02:02:59.215Z,0.00
2018-08-12T02:03:59.233Z,0.00
2018-08-12T02:04:59.256Z,0.00
2018-08-12T02:05:59.270Z,0.00
2018-08-12T02:06:59.333Z,0.00
2018-08-12T02:07:59.305Z,0.00
2018-08-12T02:08:59.322Z,0.00
2018-08-12T02:09:59.339Z,0.00
2018-08-12T02:10:59.358Z,0.00
2018-08-12T02:11:59.376Z,0.00
2018-08-12T02:12:59.397Z,0.00
2018-08-12T02:13:59.412Z,0.00
2018-08-12T02:14:59.434Z,0.00
2018-08-12T02:15:59.448Z,0.00
2018-08-12T02:16:59.466Z,0.00
2018-08-12T02:17:59.483Z,0.00
2018-08-12T02:18:59.502Z,0.00
2018-08-12T02:19:59.521Z,0.00
2018-08-12T02:20:59.536Z,0.00
2018-08-12T02:21:59.553Z,0.00
2018-08-12T02:22:59.580Z,0.00
2018-08-12T02:23:59.594Z,0.00
2018-08-12T02:24:59.608Z,0.00
2018-08-12T02:25:59.625Z,0.00
2018-08-12T02:26:59.643Z,0.00
2018-08-12T02:27:59.668Z,0.00
2018-08-12T02:28:59.682Z,0.00
2018-08-12T02:29:59.696Z,0.00
2018-08-12T02:30:59.719Z,0.00
2018-08-12T02:31:59.735Z,0.00
2018-08-12T02:32:59.759Z,0.00
2018-08-12T02:33:59.769Z,0.00
2018-08-12T02:34:59.791Z,0.00
2018-08-12T02:35:59.812Z,0.00
2018-08-12T02:36:59.821Z,0.00
2018-08-12T02:37:59.836Z,0.00
2018-08-12T02:38:59.864Z,0.00
2018-08-12T02:39:59.877Z,0.00
2018-08-12T02:40:59.894Z,0.00
2018-08-12T02:41:59.914Z,0.00
2018-08-12T02:42:59.928Z,0.00
2018-08-12T02:43:59.950Z,0.00
2018-08-12T02:44:59.970Z,0.00
2018-08-12T02:45:59.979Z,0.00
2018-08-12T02:46:59.997Z,0.00
2018-08-12T02:48:00.015Z,0.00
2018-08-12T02:49:00.042Z,0.00
2018-08-12T02:50:00.054Z,0.00
2018-08-12T02:51:00.073Z,0.00
2018-08-12T02:52:00.087Z,0.00
2018-08-12T02:53:00.110Z,0.00
2018-08-12T02:54:00.122Z,0.00
2018-08-12T02:55:00.138Z,0.00
2018-08-12T02:56:00.157Z,0.00
2018-08-12T02:57:00.189Z,0.00
2018-08-12T02:58:00.192Z,0.00
2018-08-12T02:59:00.213Z,0.00
2018-08-12T03:00:00.229Z,0.00
2018-08-12T03:01:00.251Z,0.00
2018-08-12T03:02:00.260Z,0.00
2018-08-12T03:03:00.282Z,0.00
2018-08-12T03:04:00.298Z,0.00
2018-08-12T03:05:00.316Z,0.00
2018-08-12T03:06:00.333Z,0.00
2018-08-12T03:07:00.348Z,0.00
2018-08-12T03:08:00.368Z,0.00
2018-08-12T03:09:00.385Z,0.00
2018-08-12T03:10:00.402Z,0.00
2018-08-12T03:11:00.425Z,0.00
2018-08-12T03:12:00.437Z,4.00
2018-08-12T03:13:00.456Z,4.00
2018-08-12T03:14:00.473Z,4.00
2018-08-12T03:15:00.507Z,4.00
2018-08-12T03:16:00.505Z,4.00
2018-08-12T03:17:00.526Z,4.00
2018-08-12T03:18:00.541Z,4.00
2018-08-12T03:19:00.563Z,0.00
2018-08-12T03:20:00.579Z,0.00
2018-08-12T03:21:00.594Z,4.00
2018-08-12T03:22:00.612Z,4.00
2018-08-12T03:23:00.631Z,4.00
2018-08-12T03:24:00.647Z,4.00
2018-08-12T03:25:00.669Z,4.00
2018-08-12T03:26:00.687Z,8.00
2018-08-12T03:27:00.703Z,4.00
2018-08-12T03:28:00.719Z,8.00
2018-08-12T03:29:00.732Z,8.00
2018-08-12T03:30:00.873Z,8.00
2018-08-12T03:31:00.769Z,12.00
2018-08-12T03:32:00.786Z,16.00
2018-08-12T03:33:00.807Z,12.00
2018-08-12T03:34:00.821Z,16.00
2018-08-12T03:35:00.837Z,20.00
2018-08-12T03:36:00.855Z,20.00
2018-08-12T03:37:00.871Z,28.00
2018-08-12T03:38:00.893Z,28.00
2018-08-12T03:39:00.915Z,36.00
2018-08-12T03:40:00.926Z,40.00
2018-08-12T03:41:00.948Z,48.00
2018-08-12T03:42:00.959Z,52.00
2018-08-12T03:43:00.976Z,60.00
2018-08-12T03:44:00.994Z,68.00
2018-08-12T03:45:01.014Z,80.00
2018-08-12T03:46:01.028Z,92.00
2018-08-12T03:47:01.051Z,100.00
2018-08-12T03:48:01.074Z,112.00
2018-08-12T03:49:01.113Z,128.00
2018-08-12T03:50:01.097Z,140.00
2018-08-12T03:51:01.116Z,156.00
2018-08-12T03:52:01.135Z,176.00
2018-08-12T03:53:01.166Z,196.00
2018-08-12T03:54:01.169Z,216.00
2018-08-12T03:55:01.187Z,240.00
2018-08-12T03:56:01.206Z,272.00
2018-08-12T03:57:01.220Z,308.00
2018-08-12T03:58:01.238Z,348.00
2018-08-12T03:59:01.253Z,384.00
2018-08-12T04:00:01.272Z,424.00
2018-08-12T04:01:01.293Z,468.00
2018-08-12T04:02:01.308Z,516.00
2018-08-12T04:03:01.325Z,560.00
2018-08-12T04:04:01.339Z,612.00
2018-08-12T04:05:01.357Z,668.00
2018-08-12T04:06:01.392Z,720.00
2018-08-12T04:07:01.392Z,780.00
2018-08-12T04:08:01.411Z,840.00
2018-08-12T04:09:01.431Z,908.00
2018-08-12T04:10:01.444Z,972.00
2018-08-12T04:11:01.461Z,1044.00
2018-08-12T04:12:01.478Z,1124.00
2018-08-12T04:13:01.501Z,1204.00
2018-08-12T04:14:01.640Z,1292.00
2018-08-12T04:15:01.554Z,1384.00
2018-08-12T04:16:01.549Z,1480.00
2018-08-12T04:17:01.563Z,1584.00
2018-08-12T04:18:01.580Z,1696.00
2018-08-12T04:19:01.687Z,1808.00
2018-08-12T04:20:01.617Z,1932.00
2018-08-12T04:21:01.635Z,2068.00
2018-08-12T04:22:01.650Z,2200.00
2018-08-12T04:23:01.668Z,2328.00
2018-08-12T04:24:01.688Z,2440.00
2018-08-12T04:25:01.939Z,2540.00
2018-08-12T04:26:01.776Z,2624.00
2018-08-12T04:27:01.852Z,2692.00
2018-08-12T04:28:01.901Z,2764.00
2018-08-12T04:29:01.888Z,2876.00
2018-08-12T04:30:01.809Z,3004.00
2018-08-12T04:31:01.845Z,3112.00
2018-08-12T04:32:01.892Z,3204.00
2018-08-12T04:33:01.949Z,3276.00
2018-08-12T04:34:02.055Z,3368.00
2018-08-12T04:35:01.937Z,3484.00
2018-08-12T04:36:01.891Z,3600.00
2018-08-12T04:37:01.913Z,3732.00
2018-08-12T04:38:01.931Z,3920.00
2018-08-12T04:39:01.945Z,4144.00
2018-08-12T04:40:01.971Z,4348.00
2018-08-12T04:41:01.983Z,4512.00
2018-08-12T04:42:01.997Z,4644.00
2018-08-12T04:43:02.017Z,4804.00
2018-08-12T04:44:02.035Z,5012.00
2018-08-12T04:45:02.049Z,5216.00
2018-08-12T04:46:02.139Z,5392.00
2018-08-12T04:47:02.093Z,5516.00
2018-08-12T04:48:02.106Z,5620.00
2018-08-12T04:49:02.136Z,5732.00
2018-08-12T04:50:02.136Z,5880.00
2018-08-12T04:51:02.155Z,6024.00
2018-08-12T04:52:02.173Z,6112.00
2018-08-12T04:53:02.196Z,6072.00
2018-08-12T04:54:02.208Z,5992.00
2018-08-12T04:55:02.266Z,6000.00
2018-08-12T04:56:02.243Z,6124.00
2018-08-12T04:57:02.265Z,6260.00
2018-08-12T04:58:02.289Z,6640.00
2018-08-12T04:59:02.295Z,8008.00
2018-08-12T05:00:02.320Z,12456.00
2018-08-12T05:01:02.334Z,14528.00
2018-08-12T05:02:02.373Z,15552.00
2018-08-12T05:03:02.368Z,16832.00
2018-08-12T05:04:02.386Z,17120.00
2018-08-12T05:05:02.417Z,16576.00
2018-08-12T05:06:02.429Z,16832.00
2018-08-12T05:07:02.451Z,17184.00
2018-08-12T05:08:02.476Z,18784.00
2018-08-12T05:09:02.479Z,19424.00
2018-08-12T05:10:02.496Z,19776.00
2018-08-12T05:11:02.516Z,21440.00
2018-08-12T05:12:02.567Z,24096.00
2018-08-12T05:13:02.571Z,25344.00
2018-08-12T05:14:02.626Z,25056.00
2018-08-12T05:15:02.595Z,23136.00
2018-08-12T05:16:02.615Z,19168.00
2018-08-12T05:17:02.639Z,20896.00
2018-08-12T05:18:02.660Z,23648.00
2018-08-12T05:19:02.678Z,24096.00
2018-08-12T05:20:02.699Z,24608.00
2018-08-12T05:21:02.808Z,25184.00
2018-08-12T05:22:02.782Z,25440.00
2018-08-12T05:23:02.871Z,26112.00
2018-08-12T05:24:02.784Z,24832.00
2018-08-12T05:25:02.822Z,25344.00
2018-08-12T05:26:02.823Z,25408.00
2018-08-12T05:27:02.907Z,24992.00
2018-08-12T05:28:02.866Z,27392.00
2018-08-12T05:29:02.906Z,29600.00
2018-08-12T05:30:02.922Z,30560.00
2018-08-12T05:31:02.951Z,31296.00
2018-08-12T05:32:02.956Z,27104.00
2018-08-12T05:33:02.974Z,30784.00
2018-08-12T05:34:03.000Z,28192.00
2018-08-12T05:35:03.024Z,27552.00
2018-08-12T05:36:03.082Z,29280.00
2018-08-12T05:37:03.066Z,31264.00
2018-08-12T05:38:03.091Z,24800.00
2018-08-12T05:39:03.111Z,32768.00
2018-08-12T05:40:03.267Z,31840.00
2018-08-12T05:41:03.162Z,30624.00
2018-08-12T05:42:03.180Z,30880.00
2018-08-12T05:43:03.206Z,29792.00
2018-08-12T05:44:03.264Z,30944.00
2018-08-12T05:45:03.251Z,31168.00
2018-08-12T05:46:03.278Z,29984.00
2018-08-12T05:47:03.298Z,30816.00
2018-08-12T05:48:03.321Z,28864.00
2018-08-12T05:49:03.360Z,26976.00
2018-08-12T05:50:03.372Z,21280.00
2018-08-12T05:51:03.449Z,23072.00
2018-08-12T05:52:03.422Z,26496.00
2018-08-12T05:53:03.447Z,22656.00
2018-08-12T05:54:03.474Z,26080.00
2018-08-12T05:55:03.494Z,26176.00
2018-08-12T05:56:03.521Z,29856.00
2018-08-12T05:57:03.601Z,29600.00
2018-08-12T05:58:03.569Z,30048.00
2018-08-12T05:59:03.592Z,32384.00
2018-08-12T06:00:03.617Z,45760.00
2018-08-12T06:01:03.645Z,57824.00
2018-08-12T06:02:03.672Z,63264.00
2018-08-12T06:03:03.697Z,49504.00
2018-08-12T06:04:03.721Z,36352.00
2018-08-12T06:05:03.746Z,57152.00
2018-08-12T06:06:03.770Z,58048.00
2018-08-12T06:07:03.798Z,53088.00
2018-08-12T06:08:03.821Z,40512.00
2018-08-12T06:09:03.845Z,34048.00
2018-08-12T06:10:03.872Z,42336.00
2018-08-12T06:11:03.896Z,44224.00
2018-08-12T06:12:03.931Z,33664.00
2018-08-12T06:13:03.948Z,27328.00
2018-08-12T06:14:03.976Z,21184.00
2018-08-12T06:15:03.997Z,20704.00
2018-08-12T06:16:04.019Z,27392.00
2018-08-12T06:17:04.055Z,27808.00
2018-08-12T06:18:04.074Z,34112.00
2018-08-12T06:19:04.092Z,35904.00
2018-08-12T06:20:04.120Z,30112.00
2018-08-12T06:21:04.140Z,31296.00
2018-08-12T06:22:04.177Z,28320.00
2018-08-12T06:23:04.193Z,35904.00
2018-08-12T06:24:04.356Z,43168.00
2018-08-12T06:25:04.236Z,33952.00
2018-08-12T06:26:04.265Z,32096.00
2018-08-12T06:27:04.287Z,22464.00
2018-08-12T06:28:04.330Z,21664.00
2018-08-12T06:29:04.333Z,19840.00
2018-08-12T06:30:04.375Z,22432.00
2018-08-12T06:31:04.381Z,44512.00
2018-08-12T06:32:04.402Z,74912.00
2018-08-12T06:33:04.455Z,77152.00
2018-08-12T06:34:04.452Z,78336.00
2018-08-12T06:35:04.472Z,80608.00
2018-08-12T06:36:04.509Z,77696.00
2018-08-12T06:37:04.550Z,77664.00
2018-08-12T06:38:04.556Z,74784.00
2018-08-12T06:39:04.568Z,66656.00
2018-08-12T06:40:04.594Z,67840.00
2018-08-12T06:41:04.618Z,73760.00
2018-08-12T06:42:04.642Z,77184.00
2018-08-12T06:43:04.668Z,69920.00
2018-08-12T06:44:04.695Z,42688.00
2018-08-12T06:45:04.720Z,57088.00
2018-08-12T06:46:04.743Z,68288.00
2018-08-12T06:47:04.774Z,68928.00
2018-08-12T06:48:04.798Z,58560.00
2018-08-12T06:49:04.829Z,46144.00
2018-08-12T06:50:04.845Z,71072.00
2018-08-12T06:51:04.874Z,60352.00
2018-08-12T06:52:04.933Z,77536.00
2018-08-12T06:53:04.927Z,77696.00
2018-08-12T06:54:04.950Z,59200.00
2018-08-12T06:55:04.975Z,59200.00
2018-08-12T06:56:05.008Z,56640.00
2018-08-12T06:57:05.043Z,54368.00
2018-08-12T06:58:05.057Z,56320.00
2018-08-12T06:59:05.082Z,49824.00
2018-08-12T07:00:05.107Z,56832.00
2018-08-12T07:01:05.136Z,52960.00
2018-08-12T07:02:05.159Z,54272.00
2018-08-12T07:03:05.186Z,53088.00
2018-08-12T07:04:05.213Z,35360.00
2018-08-12T07:05:05.238Z,45824.00
2018-08-12T07:06:05.268Z,51648.00
2018-08-12T07:07:05.290Z,54880.00
2018-08-12T07:08:05.321Z,55360.00
2018-08-12T07:09:05.345Z,56928.00
2018-08-12T07:10:05.370Z,62528.00
2018-08-12T07:11:05.394Z,64832.00
2018-08-12T07:12:05.424Z,58464.00
2018-08-12T07:13:05.451Z,54656.00
2018-08-12T07:14:05.476Z,58112.00
2018-08-12T07:15:05.501Z,55776.00
2018-08-12T07:16:05.526Z,59136.00
2018-08-12T07:17:05.561Z,60032.00
2018-08-12T07:18:05.577Z,57376.00
2018-08-12T07:19:05.609Z,60416.00
2018-08-12T07:20:05.631Z,55488.00
2018-08-12T07:21:05.658Z,40640.00
2018-08-12T07:22:05.684Z,46688.00
2018-08-12T07:23:05.710Z,54784.00
2018-08-12T07:24:05.738Z,58304.00
2018-08-12T07:25:05.761Z,51136.00
2018-08-12T07:26:05.788Z,47872.00
2018-08-12T07:27:05.813Z,58528.00
2018-08-12T07:28:05.840Z,62240.00
2018-08-12T07:29:05.870Z,48416.00
2018-08-12T07:30:05.892Z,51264.00
2018-08-12T07:31:05.921Z,41568.00
2018-08-12T07:32:05.949Z,43200.00
2018-08-12T07:33:05.980Z,36224.00
2018-08-12T07:34:05.999Z,33184.00
2018-08-12T07:35:06.025Z,30432.00
2018-08-12T07:36:06.051Z,24640.00
2018-08-12T07:37:06.079Z,28992.00
2018-08-12T07:38:06.105Z,29568.00
2018-08-12T07:39:06.131Z,31584.00
2018-08-12T07:40:06.157Z,37248.00
2018-08-12T07:41:06.181Z,29920.00
2018-08-12T07:42:06.209Z,24864.00
2018-08-12T07:43:06.235Z,27808.00
2018-08-12T07:44:06.258Z,30144.00
2018-08-12T07:45:06.285Z,36160.00
2018-08-12T07:46:06.308Z,32704.00
2018-08-12T07:47:06.338Z,32608.00
2018-08-12T07:48:06.361Z,34272.00
2018-08-12T07:49:06.388Z,31520.00
2018-08-12T07:50:06.412Z,32352.00
2018-08-12T07:51:06.452Z,33152.00
2018-08-12T07:52:06.458Z,37856.00
2018-08-12T07:53:06.490Z,36448.00
2018-08-12T07:54:06.557Z,36544.00
2018-08-12T07:55:06.564Z,34624.00
2018-08-12T07:56:06.565Z,37696.00
2018-08-12T07:57:06.589Z,37920.00
2018-08-12T07:58:06.626Z,34912.00
2018-08-12T07:59:06.671Z,35424.00
2018-08-12T08:00:06.662Z,36256.00
2018-08-12T08:01:06.686Z,35904.00
2018-08-12T08:02:06.715Z,36320.00
2018-08-12T08:03:06.735Z,39360.00
2018-08-12T08:04:06.764Z,38176.00
2018-08-12T08:05:06.790Z,42496.00
2018-08-12T08:06:06.819Z,40288.00
2018-08-12T08:07:06.835Z,42528.00
2018-08-12T08:08:06.975Z,41888.00
2018-08-12T08:09:06.887Z,41824.00
2018-08-12T08:10:06.917Z,39264.00
2018-08-12T08:11:06.937Z,36640.00
2018-08-12T08:12:06.958Z,34976.00
2018-08-12T08:13:07.004Z,30848.00
2018-08-12T08:14:07.014Z,32992.00
2018-08-12T08:15:07.033Z,32032.00
2018-08-12T08:16:07.060Z,32448.00
2018-08-12T08:17:07.093Z,34720.00
2018-08-12T08:18:07.114Z,40032.00
2018-08-12T08:19:07.134Z,40640.00
2018-08-12T08:20:07.159Z,37760.00
2018-08-12T08:21:07.185Z,34592.00
2018-08-12T08:22:07.212Z,33216.00
2018-08-12T08:23:07.234Z,30816.00
2018-08-12T08:24:07.261Z,32640.00
2018-08-12T08:25:07.281Z,38048.00
2018-08-12T08:26:07.309Z,41504.00
2018-08-12T08:27:07.335Z,45376.00
2018-08-12T08:28:07.361Z,47872.00
2018-08-12T08:29:07.381Z,44992.00
2018-08-12T08:30:07.406Z,40992.00
2018-08-12T08:31:07.457Z,37088.00
2018-08-12T08:32:07.472Z,32192.00
2018-08-12T08:33:07.482Z,29568.00
2018-08-12T08:34:07.509Z,28704.00
2018-08-12T08:35:07.528Z,23712.00
2018-08-12T08:36:07.550Z,19552.00
2018-08-12T08:37:07.598Z,17632.00
2018-08-12T08:38:07.673Z,15656.00
2018-08-12T08:39:07.622Z,14336.00
2018-08-12T08:40:07.646Z,13408.00
2018-08-12T08:41:07.713Z,12748.00
2018-08-12T08:42:07.696Z,12184.00
2018-08-12T08:43:07.721Z,11752.00
2018-08-12T08:44:07.760Z,11392.00
2018-08-12T08:45:07.766Z,11328.00
2018-08-12T08:46:07.815Z,11276.00
2018-08-12T08:47:07.818Z,11128.00
2018-08-12T08:48:07.842Z,10992.00
2018-08-12T08:49:07.863Z,10464.00
2018-08-12T08:50:07.890Z,10392.00
2018-08-12T08:51:07.913Z,10752.00
2018-08-12T08:52:07.956Z,11084.00
2018-08-12T08:53:07.961Z,10992.00
2018-08-12T08:54:07.983Z,10808.00
2018-08-12T08:55:08.045Z,10604.00
2018-08-12T08:56:08.100Z,10440.00
2018-08-12T08:57:08.058Z,10244.00
2018-08-12T08:58:08.093Z,9992.00
2018-08-12T08:59:08.100Z,9720.00
2018-08-12T09:00:08.122Z,9516.00
2018-08-12T09:01:08.154Z,9436.00
2018-08-12T09:02:08.203Z,9360.00
2018-08-12T09:03:08.197Z,9300.00
2018-08-12T09:04:08.216Z,9204.00
2018-08-12T09:05:08.240Z,9100.00
2018-08-12T09:06:08.262Z,9004.00
2018-08-12T09:07:08.281Z,8916.00
2018-08-12T09:08:08.412Z,8884.00
2018-08-12T09:09:08.545Z,8740.00
2018-08-12T09:10:08.357Z,8792.00
2018-08-12T09:11:08.378Z,8844.00
2018-08-12T09:12:08.402Z,8940.00
2018-08-12T09:13:08.424Z,8972.00
2018-08-12T09:14:08.495Z,8996.00
2018-08-12T09:15:08.484Z,8940.00
2018-08-12T09:16:08.497Z,8884.00
2018-08-12T09:17:08.540Z,8828.00
2018-08-12T09:18:08.556Z,8868.00
2018-08-12T09:19:08.565Z,8868.00
2018-08-12T09:20:08.595Z,8880.00
2018-08-12T09:21:08.614Z,8892.00
2018-08-12T09:22:08.646Z,8900.00
2018-08-12T09:23:08.655Z,8924.00
2018-08-12T09:24:08.674Z,8920.00
2018-08-12T09:25:08.700Z,8888.00
2018-08-12T09:26:08.728Z,8900.00
2018-08-12T09:27:08.742Z,8904.00
2018-08-12T09:28:08.766Z,8948.00
2018-08-12T09:29:08.805Z,8940.00
2018-08-12T09:30:08.813Z,8908.00
2018-08-12T09:31:08.835Z,8924.00
2018-08-12T09:32:08.862Z,8940.00
2018-08-12T09:33:08.883Z,8948.00
2018-08-12T09:34:08.906Z,9024.00
2018-08-12T09:35:08.930Z,9140.00
2018-08-12T09:36:08.964Z,9176.00
2018-08-12T09:37:08.974Z,9144.00
2018-08-12T09:38:09.007Z,9068.00
2018-08-12T09:39:09.020Z,8996.00
2018-08-12T09:40:09.045Z,8936.00
2018-08-12T09:41:09.073Z,8896.00
2018-08-12T09:42:09.092Z,8856.00
2018-08-12T09:43:09.161Z,8816.00
2018-08-12T09:44:09.143Z,8856.00
2018-08-12T09:45:09.172Z,8852.00
2018-08-12T09:46:09.192Z,8900.00
2018-08-12T09:47:09.212Z,8756.00
2018-08-12T09:48:09.243Z,8664.00
2018-08-12T09:49:09.254Z,8616.00
2018-08-12T09:50:09.288Z,8588.00
2018-08-12T09:51:09.313Z,8588.00
2018-08-12T09:52:09.356Z,8584.00
2018-08-12T09:53:09.351Z,8584.00
2018-08-12T09:54:09.376Z,8556.00
2018-08-12T09:55:09.397Z,8508.00
2018-08-12T09:56:09.423Z,8468.00
2018-08-12T09:57:09.445Z,8376.00
2018-08-12T09:58:09.477Z,8364.00
2018-08-12T09:59:09.489Z,8352.00
2018-08-12T10:00:09.609Z,8272.00
2018-08-12T10:01:09.539Z,8216.00
2018-08-12T10:02:09.563Z,8140.00
2018-08-12T10:03:09.589Z,8088.00
2018-08-12T10:04:09.608Z,8060.00
2018-08-12T10:05:09.638Z,8008.00
2018-08-12T10:06:09.658Z,7984.00
2018-08-12T10:07:09.684Z,7940.00
2018-08-12T10:08:09.709Z,7948.00
2018-08-12T10:09:09.820Z,7904.00
2018-08-12T10:10:09.751Z,7840.00
2018-08-12T10:11:09.778Z,7796.00
2018-08-12T10:12:09.797Z,7752.00
2018-08-12T10:13:09.836Z,7828.00
2018-08-12T10:14:09.853Z,7816.00
2018-08-12T10:15:09.871Z,7752.00
2018-08-12T10:16:09.903Z,7720.00
2018-08-12T10:17:09.919Z,7668.00
2018-08-12T10:18:09.945Z,7640.00
2018-08-12T10:19:09.964Z,7644.00
2018-08-12T10:20:09.989Z,7608.00
2018-08-12T10:21:10.016Z,7564.00
2018-08-12T10:22:10.037Z,7512.00
2018-08-12T10:23:10.086Z,7552.00
2018-08-12T10:24:10.080Z,7572.00
2018-08-12T10:25:10.111Z,7556.00
2018-08-12T10:26:10.129Z,7528.00
2018-08-12T10:27:10.148Z,7532.00
2018-08-12T10:28:10.176Z,7508.00
2018-08-12T10:29:10.211Z,7496.00
2018-08-12T10:30:10.223Z,7476.00
2018-08-12T10:31:10.245Z,7480.00
2018-08-12T10:32:10.271Z,7448.00
2018-08-12T10:33:10.293Z,7428.00
2018-08-12T10:34:10.316Z,7412.00
2018-08-12T10:35:10.343Z,7452.00
2018-08-12T10:36:10.365Z,7460.00
2018-08-12T10:37:10.396Z,7456.00
2018-08-12T10:38:10.416Z,7428.00
2018-08-12T10:39:10.438Z,7420.00
2018-08-12T10:40:10.464Z,7440.00
2018-08-12T10:41:10.494Z,7408.00
2018-08-12T10:42:10.506Z,7384.00
2018-08-12T10:43:10.531Z,7388.00
2018-08-12T10:44:10.558Z,7416.00
2018-08-12T10:45:10.625Z,7468.00
2018-08-12T10:46:10.619Z,7472.00
2018-08-12T10:47:10.629Z,7484.00
2018-08-12T10:48:10.664Z,7552.00
2018-08-12T10:49:10.679Z,7556.00
2018-08-12T10:50:10.700Z,7580.00
2018-08-12T10:51:10.729Z,7644.00
2018-08-12T10:52:10.773Z,7652.00
2018-08-12T10:53:10.774Z,7624.00
2018-08-12T10:54:10.797Z,7684.00
2018-08-12T10:55:10.820Z,7716.00
2018-08-12T10:56:10.843Z,7792.00
2018-08-12T10:57:10.870Z,7788.00
2018-08-12T10:58:10.893Z,7712.00
2018-08-12T10:59:10.914Z,7692.00
2018-08-12T11:00:10.941Z,7680.00
2018-08-12T11:01:10.966Z,7640.00
2018-08-12T11:02:10.982Z,7652.00
2018-08-12T11:03:11.008Z,7780.00
2018-08-12T11:04:11.034Z,7832.00
2018-08-12T11:05:11.057Z,7892.00
2018-08-12T11:06:11.083Z,7880.00
2018-08-12T11:07:11.140Z,7940.00
2018-08-12T11:08:11.140Z,7792.00
2018-08-12T11:09:11.153Z,7616.00
2018-08-12T11:10:11.179Z,7768.00
2018-08-12T11:11:11.200Z,7880.00
2018-08-12T11:12:11.239Z,7908.00
2018-08-12T11:13:11.256Z,7900.00
2018-08-12T11:14:11.276Z,7964.00
2018-08-12T11:15:11.298Z,8028.00
2018-08-12T11:16:11.323Z,7984.00
2018-08-12T11:17:11.346Z,8048.00
2018-08-12T11:18:11.372Z,8068.00
2018-08-12T11:19:11.406Z,8148.00
2018-08-12T11:20:11.431Z,8240.00
2018-08-12T11:21:11.443Z,8344.00
2018-08-12T11:22:11.473Z,8352.00
2018-08-12T11:23:11.492Z,8364.00
2018-08-12T11:24:11.523Z,8356.00
2018-08-12T11:25:11.571Z,8348.00
2018-08-12T11:26:11.635Z,8332.00
2018-08-12T11:27:11.618Z,8292.00
2018-08-12T11:28:11.632Z,8276.00
2018-08-12T11:29:11.642Z,8424.00
2018-08-12T11:30:11.675Z,8432.00
2018-08-12T11:31:11.730Z,8568.00
2018-08-12T11:32:11.774Z,8716.00
2018-08-12T11:33:11.748Z,8772.00
2018-08-12T11:34:11.763Z,8852.00
2018-08-12T11:35:11.841Z,8912.00
2018-08-12T11:36:11.809Z,9148.00
2018-08-12T11:37:11.834Z,9252.00
2018-08-12T11:38:11.862Z,9308.00
2018-08-12T11:39:11.887Z,9332.00
2018-08-12T11:40:11.909Z,9348.00
2018-08-12T11:41:11.945Z,9340.00
2018-08-12T11:42:12.006Z,9540.00
2018-08-12T11:43:11.979Z,9716.00
2018-08-12T11:44:12.002Z,9836.00
2018-08-12T11:45:12.034Z,9932.00
2018-08-12T11:46:12.052Z,10012.00
2018-08-12T11:47:12.083Z,10124.00
2018-08-12T11:48:12.101Z,10108.00
2018-08-12T11:49:12.126Z,10220.00
2018-08-12T11:50:12.152Z,10380.00
2018-08-12T11:51:12.174Z,10464.00
2018-08-12T11:52:12.206Z,10364.00
2018-08-12T11:53:12.230Z,10036.00
2018-08-12T11:54:12.267Z,10196.00
2018-08-12T11:55:12.277Z,10360.00
2018-08-12T11:56:12.301Z,10424.00
2018-08-12T11:57:12.326Z,10400.00
2018-08-12T11:58:12.362Z,10432.00
2018-08-12T11:59:12.372Z,10376.00
2018-08-12T12:00:12.406Z,10368.00
2018-08-12T12:01:12.422Z,10312.00
2018-08-12T12:02:12.491Z,10228.00
2018-08-12T12:03:12.474Z,10208.00
2018-08-12T12:04:12.498Z,10044.00
2018-08-12T12:05:12.524Z,9964.00
2018-08-12T12:06:12.547Z,9828.00
2018-08-12T12:07:12.572Z,9888.00
2018-08-12T12:08:12.597Z,9844.00
2018-08-12T12:09:12.676Z,9728.00
2018-08-12T12:10:12.654Z,9916.00
2018-08-12T12:11:12.669Z,9884.00
2018-08-12T12:12:12.696Z,9996.00
2018-08-12T12:13:12.722Z,9752.00
2018-08-12T12:14:12.745Z,9908.00
2018-08-12T12:15:12.915Z,9872.00
2018-08-12T12:16:12.796Z,9708.00
2018-08-12T12:17:12.892Z,9512.00
2018-08-12T12:18:12.845Z,9480.00
2018-08-12T12:19:12.874Z,9656.00